createdAt,value
2019-06-26T00:00:04.154Z,98361.20
2019-06-26T00:05:10.915Z,98352.48
2019-06-26T00:10:16.072Z,98359.88
2019-06-26T00:15:21.259Z,98365.02
2019-06-26T00:20:26.320Z,98363.46
2019-06-26T00:25:31.129Z,98363.60
2019-06-26T00:30:36.034Z,98369.83
2019-06-26T00:35:42.814Z,98363.22
2019-06-26T00:40:47.950Z,98363.42
2019-06-26T00:45:53.731Z,98362.63
2019-06-26T00:51:00.317Z,98363.45
2019-06-26T00:56:05.651Z,98362.77
2019-06-26T01:01:10.922Z,98361.39
2019-06-26T01:06:33.769Z,98365.91
2019-06-26T01:11:40.282Z,98352.42
2019-06-26T01:16:45.197Z,98360.78
2019-06-26T01:21:50.211Z,98366.08
2019-06-26T01:26:55.013Z,98359.35
2019-06-26T01:32:04.166Z,98357.68
2019-06-26T01:37:09.543Z,98363.02
2019-06-26T01:42:14.587Z,98369.71
2019-06-26T01:47:19.595Z,98375.94
2019-06-26T01:52:24.587Z,98379.30
2019-06-26T01:57:29.612Z,98377.80
2019-06-26T02:02:34.804Z,98374.00
2019-06-26T02:07:39.680Z,98380.55
2019-06-26T02:12:44.688Z,98368.89
2019-06-26T02:17:49.412Z,98377.47
2019-06-26T02:22:54.077Z,98383.47
2019-06-26T02:27:59.234Z,98386.97
2019-06-26T02:33:05.598Z,98377.05
2019-06-26T02:38:10.769Z,98380.83
2019-06-26T02:43:15.715Z,98382.88
2019-06-26T02:48:20.543Z,98377.76
2019-06-26T02:53:25.290Z,98377.20
2019-06-26T02:58:30.255Z,98374.05
2019-06-26T03:03:35.317Z,98381.14
2019-06-26T03:08:40.754Z,98394.09
2019-06-26T03:13:46.932Z,98389.58
2019-06-26T03:18:51.872Z,98386.66
2019-06-26T03:23:56.830Z,98391.13
2019-06-26T03:29:01.695Z,98396.80
2019-06-26T03:34:06.538Z,98401.48
2019-06-26T03:39:11.593Z,98396.34
2019-06-26T03:44:17.901Z,98402.27
2019-06-26T03:49:22.923Z,98402.55
2019-06-26T03:54:27.630Z,98399.33
2019-06-26T03:59:32.652Z,98395.78
2019-06-26T04:04:37.355Z,98397.07
2019-06-26T04:09:42.497Z,98405.21
2019-06-26T04:14:47.258Z,98409.62
2019-06-26T04:19:52.197Z,98407.95
2019-06-26T04:24:57.420Z,98418.17
2019-06-26T04:30:02.310Z,98417.98
2019-06-26T04:35:10.057Z,98421.55
2019-06-26T04:40:16.386Z,98419.80
2019-06-26T04:45:21.489Z,98427.20
2019-06-26T04:50:27.407Z,98429.73
2019-06-26T04:55:32.789Z,98425.36
2019-06-26T05:00:38.174Z,98424.59
2019-06-26T05:05:46.587Z,98424.01
2019-06-26T05:10:51.713Z,98435.33
2019-06-26T05:15:56.857Z,98438.41
2019-06-26T05:21:02.060Z,98443.33
2019-06-26T05:26:07.826Z,98442.63
2019-06-26T05:31:12.923Z,98445.56
2019-06-26T05:36:18.301Z,98451.08
2019-06-26T05:41:23.124Z,98452.34
2019-06-26T05:46:31.476Z,98446.79
2019-06-26T05:51:34.545Z,98455.86
2019-06-26T05:56:39.419Z,98459.00
2019-06-26T06:01:44.368Z,98463.05
2019-06-26T06:06:49.139Z,98463.10
2019-06-26T06:11:53.772Z,98465.27
2019-06-26T06:16:58.507Z,98474.20
2019-06-26T06:22:03.512Z,98474.17
2019-06-26T06:27:08.544Z,98477.81
2019-06-26T06:32:13.979Z,98482.22
2019-06-26T06:37:18.871Z,98487.19
2019-06-26T06:42:23.891Z,98488.12
2019-06-26T06:47:29.126Z,98485.04
2019-06-26T06:52:34.571Z,98487.48
2019-06-26T06:57:39.589Z,98493.27
2019-06-26T07:02:44.451Z,98492.25
2019-06-26T07:07:50.956Z,98496.75
2019-06-26T07:12:57.342Z,98498.45
2019-06-26T07:18:02.492Z,98496.72
2019-06-26T07:23:08.993Z,98501.31
2019-06-26T07:28:14.444Z,98494.70
2019-06-26T07:33:19.383Z,98496.64
2019-06-26T07:38:25.375Z,98498.52
2019-06-26T07:43:31.006Z,98489.77
2019-06-26T07:48:35.873Z,98494.36
2019-06-26T07:53:40.553Z,98489.28
2019-06-26T07:58:46.905Z,98485.09
2019-06-26T08:03:52.416Z,98482.46
2019-06-26T08:08:57.362Z,98488.66
2019-06-26T08:14:25.919Z,98481.22
2019-06-26T08:19:33.943Z,98480.89
2019-06-26T08:24:40.581Z,98469.87
2019-06-26T08:29:45.598Z,98480.10
2019-06-26T08:34:51.709Z,98477.98
2019-06-26T08:39:56.682Z,98486.01
2019-06-26T08:45:03.077Z,98479.80
2019-06-26T08:50:08.332Z,98480.64
2019-06-26T08:55:13.599Z,98480.02
2019-06-26T09:00:20.187Z,98478.47
2019-06-26T09:05:25.047Z,98484.62
2019-06-26T09:10:30.163Z,98479.38
2019-06-26T09:15:35.226Z,98476.19
2019-06-26T09:20:40.824Z,98477.39
2019-06-26T09:25:45.540Z,98477.11
2019-06-26T09:30:50.279Z,98478.48
2019-06-26T09:35:55.438Z,98478.86
2019-06-26T09:41:00.279Z,98473.25
2019-06-26T09:46:05.421Z,98471.72
2019-06-26T09:51:11.715Z,98470.86
2019-06-26T09:56:16.848Z,98466.57
2019-06-26T10:01:21.742Z,98459.05
2019-06-26T10:06:26.728Z,98458.90
2019-06-26T10:11:31.746Z,98453.23
2019-06-26T10:16:36.753Z,98453.52
2019-06-26T10:21:41.748Z,98443.45
2019-06-26T10:26:46.772Z,98442.77
2019-06-26T10:31:53.164Z,98438.71
2019-06-26T10:37:00.892Z,98431.06
2019-06-26T10:42:07.513Z,98420.42
2019-06-26T10:47:12.402Z,98414.44
2019-06-26T10:52:18.402Z,98410.01
2019-06-26T10:57:23.323Z,98405.20
2019-06-26T11:02:28.280Z,98399.95
2019-06-26T11:07:36.303Z,98395.92
2019-06-26T11:12:39.781Z,98383.14
2019-06-26T11:17:47.157Z,98379.97
2019-06-26T11:22:52.575Z,98361.95
2019-06-26T11:27:57.349Z,98362.20
2019-06-26T11:33:02.339Z,98353.27
2019-06-26T11:38:07.853Z,98348.20
2019-06-26T11:43:12.786Z,98356.77
2019-06-26T11:48:18.404Z,98355.73
2019-06-26T11:53:23.571Z,98350.61
2019-06-26T11:58:28.593Z,98347.37
2019-06-26T12:03:33.433Z,98344.64
2019-06-26T12:08:38.774Z,98337.88
2019-06-26T12:13:43.596Z,98338.35
2019-06-26T12:18:48.720Z,98333.13
2019-06-26T12:23:54.018Z,98314.95
2019-06-26T12:29:00.561Z,98316.36
2019-06-26T12:34:05.539Z,98309.66
2019-06-26T12:39:10.963Z,98306.52
2019-06-26T12:44:15.961Z,98303.60
2019-06-26T12:49:21.061Z,98291.60
2019-06-26T12:54:27.702Z,98289.24
2019-06-26T12:59:33.040Z,98286.00
2019-06-26T13:04:38.158Z,98277.83
2019-06-26T13:09:42.935Z,98287.19
2019-06-26T13:14:47.954Z,98276.73
2019-06-26T13:19:52.779Z,98274.56
2019-06-26T13:24:58.025Z,98271.31
2019-06-26T13:30:04.477Z,98266.27
2019-06-26T13:35:10.268Z,98251.95
2019-06-26T13:40:15.538Z,98255.70
2019-06-26T13:45:20.847Z,98242.22
2019-06-26T13:50:25.927Z,98244.00
2019-06-26T13:55:31.078Z,98239.41
2019-06-26T14:00:36.071Z,98224.52
2019-06-26T14:05:40.784Z,98219.74
2019-06-26T14:10:45.722Z,98221.80
2019-06-26T14:15:50.475Z,98218.49
2019-06-26T14:20:55.296Z,98211.80
2019-06-26T14:26:00.064Z,98205.73
2019-06-26T14:31:04.889Z,98205.75
2019-06-26T14:36:09.901Z,98212.53
2019-06-26T14:41:16.679Z,98201.34
2019-06-26T14:46:21.566Z,98195.96
2019-06-26T14:51:41.150Z,98202.50
2019-06-26T14:56:34.260Z,98197.22
2019-06-26T15:01:39.935Z,98204.34
2019-06-26T15:06:44.940Z,98191.20
2019-06-26T15:11:50.037Z,98173.07
2019-06-26T15:16:55.249Z,98168.15
2019-06-26T15:22:00.681Z,98166.77
2019-06-26T15:27:05.794Z,98180.06
2019-06-26T15:32:10.748Z,98177.97
2019-06-26T15:37:17.085Z,98166.52
2019-06-26T15:42:24.434Z,98163.56
2019-06-26T15:47:29.066Z,98167.69
2019-06-26T15:52:34.135Z,98191.53
2019-06-26T15:57:39.103Z,98215.41
2019-06-26T16:02:47.511Z,98209.58
2019-06-26T16:07:52.830Z,98196.41
2019-06-26T16:12:57.722Z,98197.41
2019-06-26T16:18:19.630Z,98185.04
2019-06-26T16:23:25.137Z,98167.80
2019-06-26T16:28:30.751Z,98178.30
2019-06-26T16:33:35.883Z,98181.67
2019-06-26T16:38:41.146Z,98179.56
2019-06-26T16:43:45.986Z,98173.61
2019-06-26T16:48:50.895Z,98175.83
2019-06-26T16:53:55.737Z,98172.45
2019-06-26T16:59:02.137Z,98181.33
2019-06-26T17:04:08.325Z,98186.82
2019-06-26T17:09:13.919Z,98177.20
2019-06-26T17:14:18.842Z,98178.63
2019-06-26T17:19:23.899Z,98177.80
2019-06-26T17:24:28.760Z,98185.13
2019-06-26T17:29:34.084Z,98175.17
2019-06-26T17:34:39.335Z,98179.15
2019-06-26T17:39:44.194Z,98191.32
2019-06-26T18:11:28.349Z,98201.63
2019-06-26T18:16:34.438Z,98196.59
2019-06-26T18:21:39.349Z,98201.77
2019-06-26T18:26:45.165Z,98198.44
2019-06-26T18:31:50.008Z,98207.66
2019-06-26T18:36:55.949Z,98214.86
2019-06-26T18:42:00.903Z,98218.76
2019-06-26T18:47:07.407Z,98220.02
2019-06-26T18:52:12.474Z,98220.03
2019-06-26T18:57:17.421Z,98226.30
2019-06-26T19:02:22.394Z,98232.33
2019-06-26T19:07:28.151Z,98231.45
2019-06-26T19:12:36.114Z,98232.06
2019-06-26T19:17:42.773Z,98230.95
2019-06-26T19:22:48.500Z,98234.02
2019-06-26T19:27:53.464Z,98232.00
2019-06-26T19:32:58.302Z,98238.75
2019-06-26T19:38:05.193Z,98244.66
2019-06-26T19:43:11.467Z,98235.64
2019-06-26T19:48:17.968Z,98240.82
2019-06-26T19:53:23.213Z,98244.66
2019-06-26T19:58:28.161Z,98245.91
2019-06-26T20:03:33.211Z,98245.92
2019-06-26T20:08:51.868Z,98240.13
2019-06-26T20:13:45.554Z,98244.52
2019-06-26T20:18:50.495Z,98238.55
2019-06-26T20:23:55.501Z,98243.65
2019-06-26T20:29:00.939Z,98243.03
2019-06-26T20:34:06.564Z,98242.48
2019-06-26T20:39:11.515Z,98237.95
2019-06-26T20:44:17.349Z,98238.66
2019-06-26T20:49:22.949Z,98240.86
2019-06-26T20:54:28.179Z,98241.66
2019-06-26T20:59:33.204Z,98233.23
2019-06-26T21:04:38.052Z,98237.91
2019-06-26T21:09:42.972Z,98232.53
2019-06-26T21:14:48.944Z,98231.77
2019-06-26T21:19:54.212Z,98230.23
2019-06-26T21:24:59.627Z,98223.20
2019-06-26T21:30:06.070Z,98219.44
2019-06-26T21:35:12.568Z,98221.62
2019-06-26T21:40:17.391Z,98215.73
2019-06-26T21:45:22.522Z,98219.88
2019-06-26T21:50:29.128Z,98217.83
2019-06-26T21:55:35.047Z,98217.60
2019-06-26T22:00:57.868Z,98217.42
2019-06-26T22:06:20.522Z,98212.16
2019-06-26T22:11:42.292Z,98215.81
2019-06-26T22:16:47.638Z,98215.27
2019-06-26T22:21:52.682Z,98212.00
2019-06-26T22:26:57.524Z,98210.00
2019-06-26T22:32:02.565Z,98208.27
2019-06-26T22:37:07.567Z,98202.44
2019-06-26T22:42:13.901Z,98204.27
2019-06-26T22:47:18.848Z,98200.97
2019-06-26T22:52:23.829Z,98201.66
2019-06-26T22:57:28.974Z,98191.89
2019-06-26T23:02:33.803Z,98195.39
2019-06-26T23:07:38.648Z,98186.73
2019-06-26T23:12:43.515Z,98188.41
2019-06-26T23:17:48.748Z,98181.61
2019-06-26T23:22:54.071Z,98185.89
2019-06-26T23:27:59.099Z,98184.47
2019-06-26T23:33:03.814Z,98194.84
2019-06-26T23:38:08.961Z,98189.33
2019-06-26T23:43:13.901Z,98189.80
2019-06-26T23:48:19.340Z,98187.91
2019-06-26T23:53:24.209Z,98183.20
2019-06-26T23:58:29.178Z,98178.52
